Terminal Aerodrome Forecast
Issued by NWS

Home | Current Version | Previous Version | Graphics & Text | Print | Product List | Glossary On
Versions: 1 2 3 4 5 6 7 8 9 10 11 12 13 14 15 16
000
FTUS43 KICT 231000 AAA
TAFCNU
TAF AMD
KCNU 231019Z 2310/2406 36005KT P6SM SCT080
      TEMPO 2311/2313 6SM BR BKN015
     FM231300 04007KT P6SM SCT025
     FM231600 05007KT P6SM SCT250
     FM240000 09005KT P6SM SKC=

USA.gov is the U.S. government's official web portal to all federal, state and local government web resources and services.